CheckWX is a tool to help pilots better visualize weather data.  It is not intended as a substitute for an official pre-flight weather briefing.

00:35:33 UTC

HEMA METAR
Marsa Alam International Airport
Marsa Alam, Egypt
Current

2 hours ago

HEMA 162300Z 30012KT CAVOK 29/06 Q1008 NOSIG
Observed
Sep-16 @ 23:00 UTC
Wind
  • 300° at 12 KTS
Visibility
10,000+ meters
Flight Rules
VFR
Cloud Levels
  • Clear skies
Temperature
29°C / 84°F
Dewpoint
C / 43°F
Humidity
23%
Altimeter
29.76" Hg
Pressure
1007.92 hPa
Previous

3 hours ago

HEMA 162200Z 29008KT CAVOK 29/10 Q1009 NOSIG
Observed
Sep-16 @ 22:00 UTC
Wind
  • 290° at 8 KTS
Visibility
10,000+ meters
Flight Rules
VFR
Cloud Levels
  • Clear skies
Temperature
29°C / 84°F
Dewpoint
10°C / 50°F
Humidity
31%
Altimeter
29.79" Hg
Pressure
1008.92 hPa
Previous

4 hours ago

HEMA 162100Z 28009KT CAVOK 29/11 Q1009 NOSIG
Observed
Sep-16 @ 21:00 UTC
Wind
  • 280° at 9 KTS
Visibility
10,000+ meters
Flight Rules
VFR
Cloud Levels
  • Clear skies
Temperature
29°C / 84°F
Dewpoint
11°C / 52°F
Humidity
33%
Altimeter
29.79" Hg
Pressure
1008.92 hPa